createdAt,value
2018-03-23T00:00:07.274Z,5.77
2018-03-23T00:03:09.715Z,4.70
2018-03-23T00:06:12.270Z,5.07
2018-03-23T00:09:14.838Z,5.00
2018-03-23T00:12:17.499Z,4.80
2018-03-23T00:15:19.951Z,4.97
2018-03-23T00:18:22.416Z,5.20
2018-03-23T00:21:24.884Z,4.57
2018-03-23T00:24:27.446Z,4.43
2018-03-23T00:27:30.071Z,5.23
2018-03-23T00:30:32.569Z,4.80
2018-03-23T00:33:35.098Z,4.40
2018-03-23T00:36:37.570Z,4.60
2018-03-23T00:39:40.059Z,4.50
2018-03-23T00:42:42.575Z,5.33
2018-03-23T00:45:45.012Z,4.73
2018-03-23T00:48:47.464Z,4.30
2018-03-23T00:51:49.942Z,4.40
2018-03-23T00:54:52.411Z,5.50
2018-03-23T00:57:54.905Z,5.37
2018-03-23T01:00:57.379Z,5.27
2018-03-23T01:03:59.883Z,5.03
2018-03-23T01:07:02.506Z,5.87
2018-03-23T01:10:05.011Z,8.20
2018-03-23T01:13:07.469Z,7.53
2018-03-23T01:16:09.946Z,8.40
2018-03-23T01:19:12.375Z,9.27
2018-03-23T01:22:15.741Z,10.00
2018-03-23T01:25:18.295Z,10.30
2018-03-23T01:28:20.824Z,10.20
2018-03-23T01:31:23.354Z,10.10
2018-03-23T01:34:25.977Z,10.00
2018-03-23T01:37:28.486Z,10.43
2018-03-23T01:40:30.990Z,10.00
2018-03-23T01:43:33.457Z,10.67
2018-03-23T01:46:35.986Z,10.40
2018-03-23T01:49:38.466Z,9.73
2018-03-23T01:52:40.985Z,10.40
2018-03-23T01:55:43.487Z,10.60
2018-03-23T01:58:46.001Z,11.03
2018-03-23T02:01:48.512Z,11.53
2018-03-23T02:04:50.976Z,13.70
2018-03-23T02:07:53.558Z,10.87
2018-03-23T02:10:56.001Z,10.33
2018-03-23T02:13:58.491Z,11.83
2018-03-23T02:17:00.967Z,10.73
2018-03-23T02:20:03.500Z,16.40
2018-03-23T02:23:05.952Z,13.70
2018-03-23T02:26:08.454Z,14.20
2018-03-23T02:29:10.917Z,20.63
2018-03-23T02:32:13.574Z,13.53
2018-03-23T02:35:16.110Z,21.63
2018-03-23T02:38:18.593Z,17.23
2018-03-23T02:41:21.084Z,21.63
2018-03-23T02:44:23.562Z,12.27
2018-03-23T02:47:26.015Z,25.23
2018-03-23T02:50:28.504Z,10.77
2018-03-23T02:53:31.076Z,12.40
2018-03-23T02:56:33.672Z,14.20
2018-03-23T02:59:36.230Z,14.50
2018-03-23T03:02:38.769Z,11.07
2018-03-23T03:05:41.327Z,11.70
2018-03-23T03:08:43.806Z,8.90
2018-03-23T03:11:46.270Z,6.90
2018-03-23T03:14:48.718Z,6.70
2018-03-23T03:17:51.275Z,5.60
2018-03-23T03:20:53.841Z,5.80
2018-03-23T03:23:56.342Z,5.57
2018-03-23T03:26:58.820Z,5.40
2018-03-23T03:30:01.323Z,5.80
2018-03-23T03:33:03.752Z,5.30
2018-03-23T03:36:06.237Z,4.77
2018-03-23T03:39:08.726Z,5.30
2018-03-23T03:42:11.261Z,5.23
2018-03-23T03:45:13.702Z,5.60
2018-03-23T03:48:16.286Z,5.70
2018-03-23T03:51:18.777Z,5.47
2018-03-23T03:54:21.209Z,5.33
2018-03-23T03:57:23.774Z,5.57
2018-03-23T04:00:26.336Z,5.57
2018-03-23T04:03:28.808Z,5.73
2018-03-23T04:06:31.361Z,6.30
2018-03-23T04:09:33.916Z,6.50
2018-03-23T04:12:36.481Z,6.80
2018-03-23T04:15:38.916Z,6.70
2018-03-23T04:18:41.503Z,6.80
2018-03-23T04:21:43.970Z,6.90
2018-03-23T04:24:46.532Z,6.73
2018-03-23T04:27:49.036Z,6.90
2018-03-23T04:30:51.563Z,7.40
2018-03-23T04:33:54.033Z,7.40
2018-03-23T04:36:56.512Z,6.63
2018-03-23T04:39:59.039Z,7.17
2018-03-23T04:43:01.547Z,7.10
2018-03-23T04:46:03.992Z,7.03
2018-03-23T04:49:06.472Z,6.53
2018-03-23T04:52:08.978Z,6.10
2018-03-23T04:55:11.547Z,6.50
2018-03-23T04:58:14.006Z,5.73
2018-03-23T05:01:16.568Z,6.40
2018-03-23T05:04:19.038Z,7.00
2018-03-23T05:07:21.492Z,8.17
2018-03-23T05:10:23.969Z,7.50
2018-03-23T05:13:26.436Z,7.80
2018-03-23T05:16:28.969Z,8.03
2018-03-23T05:19:31.426Z,7.53
2018-03-23T05:22:33.897Z,7.50
2018-03-23T05:25:36.356Z,8.60
2018-03-23T05:28:38.902Z,7.70
2018-03-23T05:31:41.437Z,8.13
2018-03-23T05:34:43.862Z,7.70
2018-03-23T05:37:46.408Z,7.00
2018-03-23T05:40:48.968Z,7.00
2018-03-23T05:43:51.432Z,6.83
2018-03-23T05:46:53.990Z,5.97
2018-03-23T05:49:56.496Z,5.53
2018-03-23T05:52:58.964Z,6.03
2018-03-23T05:56:01.478Z,5.30
2018-03-23T05:59:03.918Z,5.63
2018-03-23T06:02:07.252Z,4.47
2018-03-23T06:05:09.703Z,4.37
2018-03-23T06:08:12.222Z,5.70
2018-03-23T06:11:14.659Z,3.67
2018-03-23T06:14:17.154Z,3.53
2018-03-23T06:17:19.660Z,3.80
2018-03-23T06:20:22.199Z,3.80
2018-03-23T06:23:24.662Z,3.87
2018-03-23T06:26:27.113Z,3.83
2018-03-23T06:29:29.546Z,5.57
2018-03-23T06:32:32.003Z,6.50
2018-03-23T06:35:34.525Z,6.17
2018-03-23T06:38:36.982Z,6.50
2018-03-23T06:41:39.500Z,8.00
2018-03-23T06:44:42.023Z,8.40
2018-03-23T06:47:44.635Z,9.20
2018-03-23T06:50:47.120Z,10.43
2018-03-23T06:53:49.634Z,9.53
2018-03-23T06:56:52.224Z,9.97
2018-03-23T06:59:54.753Z,10.53
2018-03-23T07:02:57.188Z,10.47
2018-03-23T07:05:59.800Z,11.00
2018-03-23T07:09:02.368Z,12.03
2018-03-23T07:12:04.824Z,12.43
2018-03-23T07:15:07.319Z,11.30
2018-03-23T07:18:09.835Z,11.97
2018-03-23T07:21:12.359Z,13.37
2018-03-23T07:24:14.833Z,13.10
2018-03-23T07:27:17.359Z,12.97
2018-03-23T07:30:19.956Z,15.20
2018-03-23T07:33:22.473Z,14.40
2018-03-23T07:36:24.969Z,17.50
2018-03-23T07:39:27.506Z,17.73
2018-03-23T07:42:29.983Z,17.10
2018-03-23T07:45:32.506Z,15.97
2018-03-23T07:48:34.970Z,15.93
2018-03-23T07:51:37.524Z,16.43
2018-03-23T07:54:40.096Z,16.00
2018-03-23T07:57:42.593Z,15.73
2018-03-23T08:00:45.200Z,15.70
2018-03-23T08:03:47.798Z,16.50
2018-03-23T08:06:50.502Z,16.80
2018-03-23T08:09:52.965Z,17.00
2018-03-23T08:12:55.409Z,15.93
2018-03-23T08:15:57.900Z,15.57
2018-03-23T08:19:00.409Z,16.17
2018-03-23T08:22:02.868Z,16.17
2018-03-23T08:25:05.355Z,14.27
2018-03-23T08:28:07.971Z,14.77
2018-03-23T08:31:10.558Z,14.13
2018-03-23T08:34:13.099Z,14.83
2018-03-23T08:37:15.611Z,15.10
2018-03-23T08:40:18.055Z,14.80
2018-03-23T08:43:20.580Z,14.87
2018-03-23T08:46:23.036Z,15.20
2018-03-23T08:49:25.609Z,14.60
2018-03-23T08:52:28.104Z,13.40
2018-03-23T08:55:30.628Z,12.43
2018-03-23T08:58:33.192Z,11.83
2018-03-23T09:01:35.860Z,11.00
2018-03-23T09:04:38.332Z,12.00
2018-03-23T09:07:40.925Z,12.30
2018-03-23T09:10:43.446Z,12.83
2018-03-23T09:13:45.951Z,13.60
2018-03-23T09:16:48.470Z,12.27
2018-03-23T09:19:50.956Z,12.33
2018-03-23T09:22:53.430Z,11.30
2018-03-23T09:25:55.930Z,11.73
2018-03-23T09:28:58.520Z,10.87
2018-03-23T09:32:01.079Z,11.17
2018-03-23T09:35:03.567Z,12.50
2018-03-23T09:38:06.102Z,12.83
2018-03-23T09:41:08.647Z,11.80
2018-03-23T09:44:11.171Z,12.60
2018-03-23T09:47:13.670Z,13.43
2018-03-23T09:50:16.155Z,12.60
2018-03-23T09:53:18.648Z,11.73
2018-03-23T09:56:21.135Z,13.53
2018-03-23T09:59:23.649Z,12.37
2018-03-23T10:02:26.127Z,13.53
2018-03-23T10:05:28.615Z,11.97
2018-03-23T10:08:31.095Z,12.13
2018-03-23T10:11:33.545Z,11.83
2018-03-23T10:14:36.140Z,10.90
2018-03-23T10:17:38.600Z,10.47
2018-03-23T10:20:41.218Z,12.53
2018-03-23T10:23:43.723Z,12.23
2018-03-23T10:26:46.349Z,11.63
2018-03-23T10:29:48.874Z,12.37
2018-03-23T10:32:51.444Z,12.40
2018-03-23T10:35:53.902Z,12.80
2018-03-23T10:38:56.435Z,12.37
2018-03-23T10:41:58.935Z,11.63
2018-03-23T10:45:01.461Z,13.50
2018-03-23T10:48:03.917Z,13.30
2018-03-23T10:51:06.442Z,13.00
2018-03-23T10:54:08.947Z,14.57
2018-03-23T10:57:11.612Z,14.00
2018-03-23T11:00:14.171Z,15.00
2018-03-23T11:03:16.733Z,14.77
2018-03-23T11:06:19.226Z,13.40
2018-03-23T11:09:21.761Z,14.03
2018-03-23T11:12:24.322Z,16.03
2018-03-23T11:15:26.790Z,15.47
2018-03-23T11:18:29.361Z,13.97
2018-03-23T11:21:31.837Z,14.93
2018-03-23T11:24:34.296Z,15.30
2018-03-23T11:27:36.828Z,14.60
2018-03-23T11:30:39.345Z,14.20
2018-03-23T11:33:41.823Z,14.20
2018-03-23T11:36:44.328Z,16.43
2018-03-23T11:39:46.815Z,15.00
2018-03-23T11:42:49.247Z,16.00
2018-03-23T11:45:51.903Z,15.57
2018-03-23T11:48:54.360Z,15.80
2018-03-23T11:51:56.868Z,18.03
2018-03-23T11:54:59.309Z,16.67
2018-03-23T11:58:01.848Z,17.57
2018-03-23T12:01:04.419Z,17.40
2018-03-23T12:04:06.906Z,16.97
2018-03-23T12:07:09.367Z,16.83
2018-03-23T12:10:11.900Z,18.00
2018-03-23T12:13:14.359Z,17.70
2018-03-23T12:16:16.923Z,18.80
2018-03-23T12:19:19.483Z,17.70
2018-03-23T12:22:22.071Z,18.57
2018-03-23T12:25:24.702Z,18.90
2018-03-23T12:28:27.263Z,18.93
2018-03-23T12:31:29.787Z,19.87
2018-03-23T12:34:32.247Z,19.30
2018-03-23T12:37:34.753Z,19.53
2018-03-23T12:40:37.218Z,20.40
2018-03-23T12:43:39.913Z,19.90
2018-03-23T12:46:42.426Z,20.03
2018-03-23T12:49:44.915Z,21.03
2018-03-23T12:52:47.482Z,20.70
2018-03-23T12:55:50.017Z,21.23
2018-03-23T12:58:52.484Z,20.77
2018-03-23T13:01:55.085Z,22.83
2018-03-23T13:04:57.653Z,23.13
2018-03-23T13:08:05.032Z,24.57
2018-03-23T13:11:07.549Z,25.47
2018-03-23T13:14:10.109Z,26.33
2018-03-23T13:17:12.595Z,27.30
2018-03-23T13:20:15.237Z,25.93
2018-03-23T13:23:17.711Z,28.13
2018-03-23T13:26:20.208Z,28.80
2018-03-23T13:29:22.700Z,29.10
2018-03-23T13:32:25.160Z,28.87
2018-03-23T13:35:27.691Z,28.90
2018-03-23T13:38:30.132Z,29.20
2018-03-23T13:41:32.639Z,28.90
2018-03-23T13:44:35.272Z,28.80
2018-03-23T13:47:37.693Z,29.70
2018-03-23T13:50:40.188Z,29.43
2018-03-23T13:53:42.683Z,29.83
2018-03-23T13:56:45.185Z,29.93
2018-03-23T13:59:53.113Z,30.20
2018-03-23T14:02:55.614Z,31.93
2018-03-23T14:05:58.113Z,29.90
2018-03-23T14:09:00.636Z,31.20
2018-03-23T14:12:03.188Z,30.93
2018-03-23T14:15:05.723Z,29.23
2018-03-23T14:18:08.285Z,33.30
2018-03-23T14:21:10.847Z,34.17
2018-03-23T14:24:13.468Z,36.30
2018-03-23T14:27:16.053Z,37.37
2018-03-23T14:30:18.561Z,38.50
2018-03-23T14:33:21.079Z,38.50
2018-03-23T14:36:23.599Z,41.73
2018-03-23T14:39:26.095Z,44.00
2018-03-23T14:42:28.563Z,44.03
2018-03-23T14:45:31.096Z,43.20
2018-03-23T14:48:33.555Z,46.87
2018-03-23T14:51:36.111Z,45.50
2018-03-23T14:54:38.775Z,46.20
2018-03-23T14:57:41.301Z,45.90
2018-03-23T15:00:43.834Z,47.07
2018-03-23T15:03:46.331Z,46.37
2018-03-23T15:06:48.801Z,47.50
2018-03-23T15:09:51.273Z,45.67
2018-03-23T15:12:53.772Z,44.70
2018-03-23T15:15:56.391Z,43.40
2018-03-23T15:18:58.889Z,42.60
2018-03-23T15:22:01.439Z,41.30
2018-03-23T15:25:03.915Z,38.60
2018-03-23T15:28:06.467Z,41.40
2018-03-23T15:31:09.335Z,42.00
2018-03-23T15:34:11.849Z,39.90
2018-03-23T15:37:14.325Z,42.00
2018-03-23T15:40:16.800Z,39.37
2018-03-23T15:43:19.261Z,40.60
2018-03-23T15:46:21.789Z,40.20
2018-03-23T15:49:24.490Z,38.73
2018-03-23T15:52:27.057Z,37.83
2018-03-23T15:55:29.669Z,34.40
2018-03-23T15:58:32.189Z,37.47
2018-03-23T16:01:34.738Z,36.23
2018-03-23T16:04:37.337Z,36.77
2018-03-23T16:07:39.864Z,36.07
2018-03-23T16:10:42.420Z,36.30
2018-03-23T16:13:45.995Z,38.50
2018-03-23T16:16:48.585Z,37.30
2018-03-23T16:19:51.322Z,36.23
2018-03-23T16:22:53.966Z,33.50
2018-03-23T16:25:56.679Z,35.67
2018-03-23T16:28:59.355Z,34.60
2018-03-23T16:32:01.930Z,35.60
2018-03-23T16:35:04.577Z,35.90
2018-03-23T16:38:07.152Z,35.70
2018-03-23T16:41:09.803Z,37.10
2018-03-23T16:44:12.460Z,33.50
2018-03-23T16:47:15.143Z,34.37
2018-03-23T16:50:17.682Z,35.93
2018-03-23T16:53:20.263Z,33.40
2018-03-23T16:56:22.875Z,35.47
2018-03-23T16:59:25.411Z,35.63
2018-03-23T17:02:28.051Z,35.40
2018-03-23T17:05:30.570Z,35.30
2018-03-23T17:08:33.192Z,32.33
2018-03-23T17:11:35.842Z,36.53
2018-03-23T17:14:38.530Z,35.13
2018-03-23T17:17:41.172Z,35.03
2018-03-23T17:20:43.764Z,32.67
2018-03-23T17:23:46.300Z,36.47
2018-03-23T17:26:48.968Z,34.17
2018-03-23T17:29:51.631Z,33.13
2018-03-23T17:32:54.282Z,34.00
2018-03-23T17:35:58.185Z,33.30
2018-03-23T17:39:00.773Z,34.60
2018-03-23T17:42:03.442Z,32.87
2018-03-23T17:45:06.081Z,33.70
2018-03-23T17:48:08.672Z,34.13
2018-03-23T17:51:11.299Z,34.13
2018-03-23T17:54:14.017Z,34.17
2018-03-23T17:57:16.618Z,34.50
2018-03-23T18:00:19.263Z,32.60
2018-03-23T18:03:22.851Z,33.60
2018-03-23T18:06:25.477Z,33.60
2018-03-23T18:09:28.118Z,31.43
2018-03-23T18:12:30.723Z,31.27
2018-03-23T18:15:33.390Z,31.03
2018-03-23T18:18:36.008Z,31.60
2018-03-23T18:21:38.632Z,33.57
2018-03-23T18:24:41.189Z,31.83
2018-03-23T18:27:43.803Z,31.17
2018-03-23T18:30:46.398Z,32.83
2018-03-23T18:33:49.028Z,31.63
2018-03-23T18:36:51.793Z,32.30
2018-03-23T18:39:54.393Z,30.03
2018-03-23T18:42:57.001Z,31.90
2018-03-23T18:45:59.688Z,31.10
2018-03-23T18:49:02.429Z,30.07
2018-03-23T18:52:05.098Z,31.40
2018-03-23T18:55:07.793Z,31.20
2018-03-23T18:58:10.558Z,32.03
2018-03-23T19:01:13.374Z,30.40
2018-03-23T19:04:16.013Z,30.90
2018-03-23T19:10:33.674Z,31.53
2018-03-23T19:13:36.298Z,30.20
2018-03-23T19:16:39.031Z,31.70
2018-03-23T19:19:41.570Z,32.73
2018-03-23T19:22:44.166Z,31.43
2018-03-23T19:25:46.775Z,31.37
2018-03-23T19:28:49.546Z,31.00
2018-03-23T19:31:52.252Z,30.43
2018-03-23T19:34:54.831Z,30.33
2018-03-23T19:37:57.504Z,30.40
2018-03-23T19:41:00.120Z,28.77
2018-03-23T19:44:02.747Z,30.77
2018-03-23T19:47:05.349Z,31.13
2018-03-23T19:50:08.039Z,30.40
2018-03-23T19:53:10.591Z,29.17
2018-03-23T19:56:13.168Z,27.20
2018-03-23T19:59:15.934Z,27.00
2018-03-23T20:02:18.604Z,27.97
2018-03-23T20:05:21.372Z,27.40
2018-03-23T20:08:24.032Z,26.93
2018-03-23T20:11:26.705Z,24.80
2018-03-23T20:14:29.268Z,26.70
2018-03-23T20:17:37.348Z,26.10
2018-03-23T20:20:45.587Z,24.70
2018-03-23T20:23:48.136Z,23.63
2018-03-23T20:26:50.765Z,23.83
2018-03-23T20:29:53.333Z,25.23
2018-03-23T20:32:55.844Z,24.23
2018-03-23T20:35:58.472Z,23.77
2018-03-23T20:39:00.984Z,23.90
2018-03-23T20:42:03.528Z,21.90
2018-03-23T20:45:06.156Z,21.13
2018-03-23T20:48:08.738Z,22.07
2018-03-23T20:51:11.359Z,21.20
2018-03-23T20:54:13.938Z,21.27
2018-03-23T20:57:16.494Z,21.70
2018-03-23T21:00:18.999Z,22.10
2018-03-23T21:03:21.725Z,21.20
2018-03-23T21:06:24.229Z,22.13
2018-03-23T21:09:27.068Z,20.80
2018-03-23T21:12:29.658Z,23.53
2018-03-23T21:15:32.388Z,23.90
2018-03-23T21:18:34.977Z,26.00
2018-03-23T21:21:37.481Z,32.93
2018-03-23T21:24:40.164Z,30.10
2018-03-23T21:27:42.775Z,32.50
2018-03-23T21:30:45.400Z,31.80
2018-03-23T21:33:48.022Z,33.63
2018-03-23T21:36:50.546Z,34.73
2018-03-23T21:39:53.089Z,33.53
2018-03-23T21:42:55.651Z,34.00
2018-03-23T21:45:58.229Z,34.83
2018-03-23T21:49:00.779Z,33.73
2018-03-23T21:52:03.343Z,34.90
2018-03-23T21:55:06.013Z,34.77
2018-03-23T21:58:08.570Z,34.43
2018-03-23T22:01:11.160Z,37.13
2018-03-23T22:04:13.783Z,34.20
2018-03-23T22:07:16.362Z,34.23
2018-03-23T22:10:19.031Z,35.10
2018-03-23T22:13:21.584Z,34.83
2018-03-23T22:16:24.150Z,36.27
2018-03-23T22:19:26.678Z,34.97
2018-03-23T22:22:29.185Z,35.47
2018-03-23T22:25:31.690Z,34.97
2018-03-23T22:28:34.221Z,37.43
2018-03-23T22:31:36.706Z,35.53
2018-03-23T22:34:39.328Z,34.30
2018-03-23T22:37:41.886Z,34.67
2018-03-23T22:40:44.447Z,34.03
2018-03-23T22:43:46.919Z,36.00
2018-03-23T22:46:49.475Z,35.60
2018-03-23T22:49:52.007Z,37.07
2018-03-23T22:52:54.513Z,35.50
2018-03-23T22:55:56.987Z,35.73
2018-03-23T22:58:59.440Z,34.33
2018-03-23T23:02:01.987Z,36.13
2018-03-23T23:05:04.537Z,33.10
2018-03-23T23:08:07.103Z,35.67
2018-03-23T23:11:09.584Z,35.00
2018-03-23T23:14:12.127Z,33.63
2018-03-23T23:17:14.697Z,34.00
2018-03-23T23:20:17.181Z,34.60
2018-03-23T23:23:19.711Z,36.60
2018-03-23T23:26:22.147Z,35.00
2018-03-23T23:29:24.655Z,34.00
2018-03-23T23:32:27.192Z,38.30
2018-03-23T23:35:29.756Z,35.67
2018-03-23T23:38:32.332Z,36.50
2018-03-23T23:41:34.830Z,36.53
2018-03-23T23:44:37.330Z,36.73
2018-03-23T23:47:39.816Z,36.30
2018-03-23T23:50:42.476Z,36.50
2018-03-23T23:53:45.000Z,35.73
2018-03-23T23:56:47.433Z,38.30
2018-03-23T23:59:49.912Z,39.10
